Reipetown, Nevada
Current Conditions -  °F | °C
As of 3:53 AM on Tuesday 27 Jan 2015 (Local Time) from KELY Reporting Station
Broken Clouds Broken Clouds  
Wind Chill: 32°   Ceiling: 6000
Heat Index: 39°   Visibility: 10mi
Dew Point: 30°   Wind: 12mph
Humidity: 70%   Direction: 170°S
Pressure: 30.2"   Gusts: NA
Location:  39.2794°N, 114.987°W
Report Text: KELY 271153Z AUTO 17010KT 10SM BKN060 BKN075 04/M01 A3020 RMK AO2 SLP184 T00391011 10050 21022 50000
Loading
Personal Weather Stations






























Interactive Weather Map New forecast layout! Learn more

10-Day Weather Forecast

Advertisements
Track Severe Weather on mobile